Hensley, Arkansas
Current Conditions -  °F | °C
As of 1:53 AM on Thursday 25 Dec 2014 (Local Time) from KLIT Reporting Station
Clear Clear  
Wind Chill:   Ceiling: Unl
Heat Index:   Visibility: 10mi
Dew Point: -2°   Wind: 0mph
Humidity: 82%   Direction: NA
Pressure: 30.05"   Gusts: NA
Location:  34.51°N, 92.21°W
Report Text: KLIT 250753Z 00000KT 10SM CLR 01/M02 A3005 RMK AO2 SLP178 T00111017
Loading
Personal Weather Stations






























Interactive Weather Map New forecast layout! Learn more

10-Day Weather Forecast

Advertisements
Track Severe Weather on mobile